sensor_id;sensor_type;location;lat;lon;timestamp;P1;durP1;ratioP1;P2;durP2;ratioP2
25057;SDS011;13057;50.978;11.034;2022-08-21T00:00:22;13.55;;;8.88;;
25057;SDS011;13057;50.978;11.034;2022-08-21T00:02:51;13.80;;;9.20;;
25057;SDS011;13057;50.978;11.034;2022-08-21T00:05:19;13.68;;;8.23;;
25057;SDS011;13057;50.978;11.034;2022-08-21T00:07:46;10.05;;;7.70;;
25057;SDS011;13057;50.978;11.034;2022-08-21T00:10:13;13.85;;;9.77;;
25057;SDS011;13057;50.978;11.034;2022-08-21T00:12:41;11.10;;;8.32;;
25057;SDS011;13057;50.978;11.034;2022-08-21T00:15:09;10.82;;;7.75;;
25057;SDS011;13057;50.978;11.034;2022-08-21T00:17:39;11.60;;;7.90;;
25057;SDS011;13057;50.978;11.034;2022-08-21T00:20:06;10.77;;;8.10;;
25057;SDS011;13057;50.978;11.034;2022-08-21T00:22:34;9.85;;;7.80;;
25057;SDS011;13057;50.978;11.034;2022-08-21T00:25:00;10.07;;;7.50;;
25057;SDS011;13057;50.978;11.034;2022-08-21T00:27:27;13.63;;;8.23;;
25057;SDS011;13057;50.978;11.034;2022-08-21T00:29:53;10.63;;;8.05;;
25057;SDS011;13057;50.978;11.034;2022-08-21T00:32:21;9.57;;;7.38;;
25057;SDS011;13057;50.978;11.034;2022-08-21T00:34:49;10.85;;;7.43;;
25057;SDS011;13057;50.978;11.034;2022-08-21T00:37:15;10.60;;;7.50;;
25057;SDS011;13057;50.978;11.034;2022-08-21T00:39:42;9.75;;;7.38;;
25057;SDS011;13057;50.978;11.034;2022-08-21T00:42:10;10.13;;;7.05;;
25057;SDS011;13057;50.978;11.034;2022-08-21T00:44:43;14.85;;;8.15;;
25057;SDS011;13057;50.978;11.034;2022-08-21T00:47:17;16.67;;;10.00;;
25057;SDS011;13057;50.978;11.034;2022-08-21T00:49:45;13.15;;;10.02;;
25057;SDS011;13057;50.978;11.034;2022-08-21T00:52:14;14.13;;;9.63;;
25057;SDS011;13057;50.978;11.034;2022-08-21T00:54:45;12.23;;;9.32;;
25057;SDS011;13057;50.978;11.034;2022-08-21T00:57:15;12.43;;;8.85;;
25057;SDS011;13057;50.978;11.034;2022-08-21T00:59:48;12.10;;;9.48;;
25057;SDS011;13057;50.978;11.034;2022-08-21T01:02:17;11.80;;;8.23;;
25057;SDS011;13057;50.978;11.034;2022-08-21T01:04:46;11.05;;;7.60;;
25057;SDS011;13057;50.978;11.034;2022-08-21T01:07:17;9.53;;;8.00;;
25057;SDS011;13057;50.978;11.034;2022-08-21T01:09:46;10.02;;;7.22;;
25057;SDS011;13057;50.978;11.034;2022-08-21T01:12:13;13.45;;;8.20;;
25057;SDS011;13057;50.978;11.034;2022-08-21T01:14:41;10.15;;;7.28;;
25057;SDS011;13057;50.978;11.034;2022-08-21T01:17:10;9.85;;;6.95;;
25057;SDS011;13057;50.978;11.034;2022-08-21T01:19:40;8.57;;;6.72;;
25057;SDS011;13057;50.978;11.034;2022-08-21T01:22:07;10.30;;;7.47;;
25057;SDS011;13057;50.978;11.034;2022-08-21T01:24:35;10.55;;;7.28;;
25057;SDS011;13057;50.978;11.034;2022-08-21T01:27:01;9.50;;;7.35;;
25057;SDS011;13057;50.978;11.034;2022-08-21T01:29:31;8.93;;;6.88;;
25057;SDS011;13057;50.978;11.034;2022-08-21T01:32:03;12.60;;;7.18;;
25057;SDS011;13057;50.978;11.034;2022-08-21T01:34:33;7.97;;;6.10;;
25057;SDS011;13057;50.978;11.034;2022-08-21T01:37:01;8.25;;;6.40;;
25057;SDS011;13057;50.978;11.034;2022-08-21T01:39:29;8.95;;;6.78;;
25057;SDS011;13057;50.978;11.034;2022-08-21T01:41:55;8.43;;;6.50;;
25057;SDS011;13057;50.978;11.034;2022-08-21T01:44:23;8.60;;;6.28;;
25057;SDS011;13057;50.978;11.034;2022-08-21T01:46:51;8.32;;;6.40;;
25057;SDS011;13057;50.978;11.034;2022-08-21T01:49:17;7.68;;;6.10;;
25057;SDS011;13057;50.978;11.034;2022-08-21T01:51:44;7.05;;;5.57;;
25057;SDS011;13057;50.978;11.034;2022-08-21T01:54:10;8.65;;;6.63;;
25057;SDS011;13057;50.978;11.034;2022-08-21T01:56:38;8.93;;;6.18;;
25057;SDS011;13057;50.978;11.034;2022-08-21T01:59:06;7.60;;;5.80;;
25057;SDS011;13057;50.978;11.034;2022-08-21T02:01:33;7.45;;;5.88;;
25057;SDS011;13057;50.978;11.034;2022-08-21T02:04:00;8.85;;;6.03;;
25057;SDS011;13057;50.978;11.034;2022-08-21T02:06:27;9.07;;;6.57;;
25057;SDS011;13057;50.978;11.034;2022-08-21T02:08:54;10.85;;;6.72;;
25057;SDS011;13057;50.978;11.034;2022-08-21T02:11:20;8.20;;;6.10;;
25057;SDS011;13057;50.978;11.034;2022-08-21T02:13:46;7.30;;;5.55;;
25057;SDS011;13057;50.978;11.034;2022-08-21T02:16:12;9.23;;;5.75;;
25057;SDS011;13057;50.978;11.034;2022-08-21T02:18:38;10.32;;;5.47;;
25057;SDS011;13057;50.978;11.034;2022-08-21T02:21:04;8.00;;;5.63;;
25057;SDS011;13057;50.978;11.034;2022-08-21T02:23:32;8.13;;;6.32;;
25057;SDS011;13057;50.978;11.034;2022-08-21T02:25:59;9.02;;;5.65;;
25057;SDS011;13057;50.978;11.034;2022-08-21T02:28:29;8.05;;;6.10;;
25057;SDS011;13057;50.978;11.034;2022-08-21T02:30:56;8.27;;;6.00;;
25057;SDS011;13057;50.978;11.034;2022-08-21T02:33:24;7.53;;;6.05;;
25057;SDS011;13057;50.978;11.034;2022-08-21T02:35:51;8.02;;;6.38;;
25057;SDS011;13057;50.978;11.034;2022-08-21T02:38:20;7.18;;;5.93;;
25057;SDS011;13057;50.978;11.034;2022-08-21T02:40:48;8.98;;;5.85;;
25057;SDS011;13057;50.978;11.034;2022-08-21T02:43:18;7.85;;;5.90;;
25057;SDS011;13057;50.978;11.034;2022-08-21T02:45:45;7.38;;;5.68;;
25057;SDS011;13057;50.978;11.034;2022-08-21T02:48:13;6.85;;;5.80;;
25057;SDS011;13057;50.978;11.034;2022-08-21T02:50:42;7.30;;;5.93;;
25057;SDS011;13057;50.978;11.034;2022-08-21T02:53:11;7.68;;;5.68;;
25057;SDS011;13057;50.978;11.034;2022-08-21T02:55:41;11.38;;;6.20;;
25057;SDS011;13057;50.978;11.034;2022-08-21T02:58:09;6.95;;;5.50;;
25057;SDS011;13057;50.978;11.034;2022-08-21T03:00:37;10.75;;;6.82;;
25057;SDS011;13057;50.978;11.034;2022-08-21T03:03:04;6.90;;;5.40;;
25057;SDS011;13057;50.978;11.034;2022-08-21T03:05:32;7.13;;;5.53;;
25057;SDS011;13057;50.978;11.034;2022-08-21T03:08:01;7.03;;;5.80;;
25057;SDS011;13057;50.978;11.034;2022-08-21T03:10:32;9.18;;;6.55;;
25057;SDS011;13057;50.978;11.034;2022-08-21T03:12:59;7.38;;;5.68;;
25057;SDS011;13057;50.978;11.034;2022-08-21T03:15:26;6.05;;;5.22;;
25057;SDS011;13057;50.978;11.034;2022-08-21T03:17:52;9.55;;;5.68;;
25057;SDS011;13057;50.978;11.034;2022-08-21T03:20:20;6.28;;;5.00;;
25057;SDS011;13057;50.978;11.034;2022-08-21T03:22:49;7.10;;;4.90;;
25057;SDS011;13057;50.978;11.034;2022-08-21T03:25:15;8.05;;;5.80;;
25057;SDS011;13057;50.978;11.034;2022-08-21T03:27:42;8.63;;;5.78;;
25057;SDS011;13057;50.978;11.034;2022-08-21T03:30:08;9.25;;;5.47;;
25057;SDS011;13057;50.978;11.034;2022-08-21T03:32:36;7.20;;;5.88;;
25057;SDS011;13057;50.978;11.034;2022-08-21T03:35:03;7.32;;;5.53;;
25057;SDS011;13057;50.978;11.034;2022-08-21T03:37:34;8.38;;;6.10;;
25057;SDS011;13057;50.978;11.034;2022-08-21T03:40:03;7.57;;;5.85;;
25057;SDS011;13057;50.978;11.034;2022-08-21T03:42:32;9.52;;;6.28;;
25057;SDS011;13057;50.978;11.034;2022-08-21T03:45:00;7.05;;;5.45;;
25057;SDS011;13057;50.978;11.034;2022-08-21T03:47:26;6.55;;;5.35;;
25057;SDS011;13057;50.978;11.034;2022-08-21T03:49:55;8.07;;;5.65;;
25057;SDS011;13057;50.978;11.034;2022-08-21T03:52:21;7.10;;;5.80;;
25057;SDS011;13057;50.978;11.034;2022-08-21T03:54:47;6.90;;;5.60;;
25057;SDS011;13057;50.978;11.034;2022-08-21T03:57:15;7.60;;;5.60;;
25057;SDS011;13057;50.978;11.034;2022-08-21T03:59:41;11.35;;;7.32;;
25057;SDS011;13057;50.978;11.034;2022-08-21T04:02:08;8.80;;;5.60;;
25057;SDS011;13057;50.978;11.034;2022-08-21T04:04:35;6.57;;;5.35;;
25057;SDS011;13057;50.978;11.034;2022-08-21T04:07:02;7.10;;;5.53;;
25057;SDS011;13057;50.978;11.034;2022-08-21T04:09:31;7.25;;;5.53;;
25057;SDS011;13057;50.978;11.034;2022-08-21T04:12:02;9.82;;;5.90;;
25057;SDS011;13057;50.978;11.034;2022-08-21T04:14:29;6.75;;;5.50;;
25057;SDS011;13057;50.978;11.034;2022-08-21T04:16:55;7.15;;;5.32;;
25057;SDS011;13057;50.978;11.034;2022-08-21T04:19:21;7.25;;;5.70;;
25057;SDS011;13057;50.978;11.034;2022-08-21T04:21:48;8.90;;;5.57;;
25057;SDS011;13057;50.978;11.034;2022-08-21T04:24:14;8.15;;;5.70;;
25057;SDS011;13057;50.978;11.034;2022-08-21T04:26:40;7.05;;;5.57;;
25057;SDS011;13057;50.978;11.034;2022-08-21T04:29:07;9.52;;;5.90;;
25057;SDS011;13057;50.978;11.034;2022-08-21T04:31:35;7.55;;;5.47;;
25057;SDS011;13057;50.978;11.034;2022-08-21T04:34:06;6.53;;;5.63;;
25057;SDS011;13057;50.978;11.034;2022-08-21T04:36:33;7.53;;;5.68;;
25057;SDS011;13057;50.978;11.034;2022-08-21T04:39:01;9.55;;;5.85;;
25057;SDS011;13057;50.978;11.034;2022-08-21T04:41:27;6.88;;;5.55;;
25057;SDS011;13057;50.978;11.034;2022-08-21T04:43:54;10.07;;;6.13;;
25057;SDS011;13057;50.978;11.034;2022-08-21T04:46:22;7.50;;;5.47;;
25057;SDS011;13057;50.978;11.034;2022-08-21T04:48:48;7.55;;;5.65;;
25057;SDS011;13057;50.978;11.034;2022-08-21T04:51:17;7.00;;;5.72;;
25057;SDS011;13057;50.978;11.034;2022-08-21T04:53:49;10.32;;;5.95;;
25057;SDS011;13057;50.978;11.034;2022-08-21T04:56:20;10.68;;;6.20;;
25057;SDS011;13057;50.978;11.034;2022-08-21T05:01:18;9.30;;;5.85;;
25057;SDS011;13057;50.978;11.034;2022-08-21T05:03:47;7.28;;;5.68;;
25057;SDS011;13057;50.978;11.034;2022-08-21T05:06:14;6.47;;;5.07;;
25057;SDS011;13057;50.978;11.034;2022-08-21T05:08:41;8.85;;;5.55;;
25057;SDS011;13057;50.978;11.034;2022-08-21T05:11:11;8.90;;;5.80;;
25057;SDS011;13057;50.978;11.034;2022-08-21T05:13:39;8.02;;;5.70;;
25057;SDS011;13057;50.978;11.034;2022-08-21T05:16:06;8.13;;;5.70;;
25057;SDS011;13057;50.978;11.034;2022-08-21T05:18:33;8.48;;;6.18;;
25057;SDS011;13057;50.978;11.034;2022-08-21T05:20:59;7.35;;;6.15;;
25057;SDS011;13057;50.978;11.034;2022-08-21T05:23:25;7.15;;;5.10;;
25057;SDS011;13057;50.978;11.034;2022-08-21T05:25:52;9.85;;;6.20;;
25057;SDS011;13057;50.978;11.034;2022-08-21T05:28:18;7.18;;;5.82;;
25057;SDS011;13057;50.978;11.034;2022-08-21T05:30:44;7.00;;;5.47;;
25057;SDS011;13057;50.978;11.034;2022-08-21T05:33:11;7.22;;;5.65;;
25057;SDS011;13057;50.978;11.034;2022-08-21T05:35:38;7.38;;;5.63;;
25057;SDS011;13057;50.978;11.034;2022-08-21T05:38:05;12.57;;;6.05;;
25057;SDS011;13057;50.978;11.034;2022-08-21T05:40:32;7.47;;;5.60;;
25057;SDS011;13057;50.978;11.034;2022-08-21T05:42:57;10.65;;;6.22;;
25057;SDS011;13057;50.978;11.034;2022-08-21T05:45:25;7.32;;;5.82;;
25057;SDS011;13057;50.978;11.034;2022-08-21T05:47:52;7.78;;;5.82;;
25057;SDS011;13057;50.978;11.034;2022-08-21T05:50:18;8.07;;;5.63;;
25057;SDS011;13057;50.978;11.034;2022-08-21T05:52:44;6.80;;;5.38;;
25057;SDS011;13057;50.978;11.034;2022-08-21T05:55:10;7.50;;;5.57;;
25057;SDS011;13057;50.978;11.034;2022-08-21T05:57:38;7.50;;;5.32;;
25057;SDS011;13057;50.978;11.034;2022-08-21T06:00:06;6.30;;;5.47;;
25057;SDS011;13057;50.978;11.034;2022-08-21T06:02:36;9.48;;;5.13;;
25057;SDS011;13057;50.978;11.034;2022-08-21T06:05:03;8.00;;;5.63;;
25057;SDS011;13057;50.978;11.034;2022-08-21T06:07:31;7.03;;;5.65;;
25057;SDS011;13057;50.978;11.034;2022-08-21T06:09:59;13.32;;;10.20;;
25057;SDS011;13057;50.978;11.034;2022-08-21T06:12:25;8.52;;;5.75;;
25057;SDS011;13057;50.978;11.034;2022-08-21T06:14:52;10.77;;;5.97;;
25057;SDS011;13057;50.978;11.034;2022-08-21T06:17:17;9.00;;;6.22;;
25057;SDS011;13057;50.978;11.034;2022-08-21T06:19:44;10.10;;;5.72;;
25057;SDS011;13057;50.978;11.034;2022-08-21T06:22:11;8.60;;;6.18;;
25057;SDS011;13057;50.978;11.034;2022-08-21T06:24:38;8.07;;;6.25;;
25057;SDS011;13057;50.978;11.034;2022-08-21T06:27:05;5.65;;;5.00;;
25057;SDS011;13057;50.978;11.034;2022-08-21T06:29:33;8.30;;;5.75;;
25057;SDS011;13057;50.978;11.034;2022-08-21T06:31:59;7.30;;;5.35;;
25057;SDS011;13057;50.978;11.034;2022-08-21T06:34:29;7.20;;;5.65;;
25057;SDS011;13057;50.978;11.034;2022-08-21T06:36:55;6.25;;;5.45;;
25057;SDS011;13057;50.978;11.034;2022-08-21T06:39:21;6.90;;;5.45;;
25057;SDS011;13057;50.978;11.034;2022-08-21T06:41:47;6.63;;;5.25;;
25057;SDS011;13057;50.978;11.034;2022-08-21T06:44:15;7.30;;;5.47;;
25057;SDS011;13057;50.978;11.034;2022-08-21T06:46:43;6.60;;;5.30;;
25057;SDS011;13057;50.978;11.034;2022-08-21T06:49:10;6.45;;;5.22;;
25057;SDS011;13057;50.978;11.034;2022-08-21T06:51:35;6.18;;;5.20;;
25057;SDS011;13057;50.978;11.034;2022-08-21T06:54:01;6.57;;;5.43;;
25057;SDS011;13057;50.978;11.034;2022-08-21T06:56:27;6.25;;;5.00;;
25057;SDS011;13057;50.978;11.034;2022-08-21T06:58:53;9.63;;;4.90;;
25057;SDS011;13057;50.978;11.034;2022-08-21T07:01:20;5.85;;;5.20;;
25057;SDS011;13057;50.978;11.034;2022-08-21T07:03:49;7.07;;;5.43;;
25057;SDS011;13057;50.978;11.034;2022-08-21T07:06:16;8.07;;;5.68;;
25057;SDS011;13057;50.978;11.034;2022-08-21T07:08:43;7.03;;;5.60;;
25057;SDS011;13057;50.978;11.034;2022-08-21T07:11:12;6.82;;;5.13;;
25057;SDS011;13057;50.978;11.034;2022-08-21T07:13:43;9.10;;;4.72;;
25057;SDS011;13057;50.978;11.034;2022-08-21T07:16:10;7.10;;;4.88;;
25057;SDS011;13057;50.978;11.034;2022-08-21T07:18:40;7.50;;;5.20;;
25057;SDS011;13057;50.978;11.034;2022-08-21T07:21:10;7.10;;;5.38;;
25057;SDS011;13057;50.978;11.034;2022-08-21T07:23:39;6.07;;;5.07;;
25057;SDS011;13057;50.978;11.034;2022-08-21T07:26:10;7.22;;;5.13;;
25057;SDS011;13057;50.978;11.034;2022-08-21T07:28:36;7.35;;;4.97;;
25057;SDS011;13057;50.978;11.034;2022-08-21T07:31:03;6.78;;;5.28;;
25057;SDS011;13057;50.978;11.034;2022-08-21T07:33:30;7.07;;;5.75;;
25057;SDS011;13057;50.978;11.034;2022-08-21T07:35:59;7.38;;;5.68;;
25057;SDS011;13057;50.978;11.034;2022-08-21T07:38:27;8.18;;;6.15;;
25057;SDS011;13057;50.978;11.034;2022-08-21T07:40:55;11.82;;;6.90;;
25057;SDS011;13057;50.978;11.034;2022-08-21T07:43:24;8.77;;;5.95;;
25057;SDS011;13057;50.978;11.034;2022-08-21T07:45:53;8.90;;;6.93;;
25057;SDS011;13057;50.978;11.034;2022-08-21T07:48:21;9.95;;;7.07;;
25057;SDS011;13057;50.978;11.034;2022-08-21T07:50:47;8.40;;;6.55;;
25057;SDS011;13057;50.978;11.034;2022-08-21T07:53:14;9.43;;;7.32;;
25057;SDS011;13057;50.978;11.034;2022-08-21T07:55:40;13.50;;;7.35;;
25057;SDS011;13057;50.978;11.034;2022-08-21T07:58:06;10.80;;;7.82;;
25057;SDS011;13057;50.978;11.034;2022-08-21T08:00:32;10.80;;;7.68;;
25057;SDS011;13057;50.978;11.034;2022-08-21T08:03:00;13.02;;;7.95;;
25057;SDS011;13057;50.978;11.034;2022-08-21T08:05:29;11.13;;;7.28;;
25057;SDS011;13057;50.978;11.034;2022-08-21T08:08:02;12.63;;;7.85;;
25057;SDS011;13057;50.978;11.034;2022-08-21T08:10:28;12.73;;;8.07;;
25057;SDS011;13057;50.978;11.034;2022-08-21T08:12:55;11.57;;;7.95;;
25057;SDS011;13057;50.978;11.034;2022-08-21T08:15:22;11.45;;;7.57;;
25057;SDS011;13057;50.978;11.034;2022-08-21T08:17:51;11.10;;;7.00;;
25057;SDS011;13057;50.978;11.034;2022-08-21T08:20:18;11.30;;;7.43;;
25057;SDS011;13057;50.978;11.034;2022-08-21T08:22:45;10.30;;;6.38;;
25057;SDS011;13057;50.978;11.034;2022-08-21T08:25:12;11.88;;;6.90;;
25057;SDS011;13057;50.978;11.034;2022-08-21T08:27:39;10.68;;;6.97;;
25057;SDS011;13057;50.978;11.034;2022-08-21T08:30:06;10.77;;;6.90;;
25057;SDS011;13057;50.978;11.034;2022-08-21T08:32:34;11.85;;;7.10;;
25057;SDS011;13057;50.978;11.034;2022-08-21T08:35:01;10.18;;;7.00;;
25057;SDS011;13057;50.978;11.034;2022-08-21T08:37:28;10.57;;;7.32;;
25057;SDS011;13057;50.978;11.034;2022-08-21T08:39:55;11.13;;;7.05;;
25057;SDS011;13057;50.978;11.034;2022-08-21T08:42:25;10.98;;;7.95;;
25057;SDS011;13057;50.978;11.034;2022-08-21T08:44:58;8.13;;;6.43;;
25057;SDS011;13057;50.978;11.034;2022-08-21T08:47:29;9.13;;;6.85;;
25057;SDS011;13057;50.978;11.034;2022-08-21T08:50:02;9.18;;;6.70;;
25057;SDS011;13057;50.978;11.034;2022-08-21T08:52:37;9.20;;;6.65;;
25057;SDS011;13057;50.978;11.034;2022-08-21T08:55:12;10.50;;;7.00;;
25057;SDS011;13057;50.978;11.034;2022-08-21T08:57:45;13.45;;;10.13;;
25057;SDS011;13057;50.978;11.034;2022-08-21T09:00:13;10.90;;;6.47;;
25057;SDS011;13057;50.978;11.034;2022-08-21T09:02:41;9.23;;;6.78;;
25057;SDS011;13057;50.978;11.034;2022-08-21T09:05:17;11.95;;;6.85;;
25057;SDS011;13057;50.978;11.034;2022-08-21T09:07:55;10.02;;;7.10;;
25057;SDS011;13057;50.978;11.034;2022-08-21T09:10:48;9.43;;;7.35;;
25057;SDS011;13057;50.978;11.034;2022-08-21T09:13:26;9.85;;;5.93;;
25057;SDS011;13057;50.978;11.034;2022-08-21T09:16:10;8.88;;;6.80;;
25057;SDS011;13057;50.978;11.034;2022-08-21T09:18:47;10.80;;;6.28;;
25057;SDS011;13057;50.978;11.034;2022-08-21T09:21:29;8.45;;;5.80;;
25057;SDS011;13057;50.978;11.034;2022-08-21T09:26:54;8.40;;;6.32;;
25057;SDS011;13057;50.978;11.034;2022-08-21T09:29:36;11.45;;;6.65;;
25057;SDS011;13057;50.978;11.034;2022-08-21T09:32:10;11.30;;;6.45;;
25057;SDS011;13057;50.978;11.034;2022-08-21T09:34:53;9.57;;;5.88;;
25057;SDS011;13057;50.978;11.034;2022-08-21T09:37:21;7.65;;;5.60;;
25057;SDS011;13057;50.978;11.034;2022-08-21T09:39:47;8.10;;;6.03;;
25057;SDS011;13057;50.978;11.034;2022-08-21T09:42:21;9.02;;;6.07;;
25057;SDS011;13057;50.978;11.034;2022-08-21T09:45:00;8.05;;;5.75;;
25057;SDS011;13057;50.978;11.034;2022-08-21T09:47:34;10.90;;;6.03;;
25057;SDS011;13057;50.978;11.034;2022-08-21T09:50:09;9.10;;;5.82;;
25057;SDS011;13057;50.978;11.034;2022-08-21T09:52:41;7.05;;;5.50;;
25057;SDS011;13057;50.978;11.034;2022-08-21T09:55:14;8.75;;;5.00;;
25057;SDS011;13057;50.978;11.034;2022-08-21T09:58:05;7.18;;;5.03;;
25057;SDS011;13057;50.978;11.034;2022-08-21T10:00:33;9.73;;;5.68;;
25057;SDS011;13057;50.978;11.034;2022-08-21T10:03:12;8.65;;;6.00;;
25057;SDS011;13057;50.978;11.034;2022-08-21T10:05:52;7.68;;;5.70;;
25057;SDS011;13057;50.978;11.034;2022-08-21T10:08:24;8.52;;;5.13;;
25057;SDS011;13057;50.978;11.034;2022-08-21T10:10:54;6.32;;;4.57;;
25057;SDS011;13057;50.978;11.034;2022-08-21T10:16:01;6.50;;;4.47;;
25057;SDS011;13057;50.978;11.034;2022-08-21T10:18:59;6.80;;;4.53;;
25057;SDS011;13057;50.978;11.034;2022-08-21T10:21:40;7.07;;;4.47;;
25057;SDS011;13057;50.978;11.034;2022-08-21T10:26:54;6.15;;;4.70;;
25057;SDS011;13057;50.978;11.034;2022-08-21T10:29:25;5.47;;;4.55;;
25057;SDS011;13057;50.978;11.034;2022-08-21T10:32:23;6.78;;;4.18;;
25057;SDS011;13057;50.978;11.034;2022-08-21T10:35:09;5.18;;;4.10;;
25057;SDS011;13057;50.978;11.034;2022-08-21T10:40:34;4.80;;;3.58;;
25057;SDS011;13057;50.978;11.034;2022-08-21T10:43:23;5.38;;;4.18;;
25057;SDS011;13057;50.978;11.034;2022-08-21T10:46:07;9.85;;;4.18;;
25057;SDS011;13057;50.978;11.034;2022-08-21T10:48:58;5.93;;;4.15;;
25057;SDS011;13057;50.978;11.034;2022-08-21T10:51:42;6.55;;;4.20;;
25057;SDS011;13057;50.978;11.034;2022-08-21T10:54:27;5.60;;;3.88;;
25057;SDS011;13057;50.978;11.034;2022-08-21T10:57:07;5.47;;;3.85;;
25057;SDS011;13057;50.978;11.034;2022-08-21T10:59:42;5.63;;;4.05;;
25057;SDS011;13057;50.978;11.034;2022-08-21T11:02:19;6.60;;;3.50;;
25057;SDS011;13057;50.978;11.034;2022-08-21T11:04:53;6.03;;;3.67;;
25057;SDS011;13057;50.978;11.034;2022-08-21T11:07:26;5.70;;;3.28;;
25057;SDS011;13057;50.978;11.034;2022-08-21T11:09:58;4.93;;;3.30;;
25057;SDS011;13057;50.978;11.034;2022-08-21T11:12:42;5.45;;;3.47;;
25057;SDS011;13057;50.978;11.034;2022-08-21T11:18:02;8.57;;;3.28;;
25057;SDS011;13057;50.978;11.034;2022-08-21T11:20:49;5.50;;;3.40;;
25057;SDS011;13057;50.978;11.034;2022-08-21T11:23:40;6.22;;;4.07;;
25057;SDS011;13057;50.978;11.034;2022-08-21T11:26:32;4.63;;;3.10;;
25057;SDS011;13057;50.978;11.034;2022-08-21T11:29:10;3.83;;;3.20;;
25057;SDS011;13057;50.978;11.034;2022-08-21T11:31:49;5.18;;;3.00;;
25057;SDS011;13057;50.978;11.034;2022-08-21T11:34:31;5.28;;;3.38;;
25057;SDS011;13057;50.978;11.034;2022-08-21T11:37:22;4.70;;;3.50;;
25057;SDS011;13057;50.978;11.034;2022-08-21T11:40:04;5.93;;;3.20;;
25057;SDS011;13057;50.978;11.034;2022-08-21T11:42:49;6.90;;;2.80;;
25057;SDS011;13057;50.978;11.034;2022-08-21T11:45:26;5.57;;;2.85;;
25057;SDS011;13057;50.978;11.034;2022-08-21T11:48:02;4.38;;;2.83;;
25057;SDS011;13057;50.978;11.034;2022-08-21T11:50:41;5.45;;;3.30;;
25057;SDS011;13057;50.978;11.034;2022-08-21T11:53:15;8.10;;;3.10;;
25057;SDS011;13057;50.978;11.034;2022-08-21T11:55:53;4.00;;;2.58;;
25057;SDS011;13057;50.978;11.034;2022-08-21T11:58:28;5.57;;;2.75;;
25057;SDS011;13057;50.978;11.034;2022-08-21T12:03:27;3.85;;;2.60;;
25057;SDS011;13057;50.978;11.034;2022-08-21T12:05:58;5.13;;;2.72;;
25057;SDS011;13057;50.978;11.034;2022-08-21T12:08:28;2.63;;;2.20;;
25057;SDS011;13057;50.978;11.034;2022-08-21T12:11:04;6.72;;;2.65;;
25057;SDS011;13057;50.978;11.034;2022-08-21T12:13:34;6.15;;;2.40;;
25057;SDS011;13057;50.978;11.034;2022-08-21T12:16:08;8.13;;;2.90;;
25057;SDS011;13057;50.978;11.034;2022-08-21T12:18:36;6.32;;;2.70;;
25057;SDS011;13057;50.978;11.034;2022-08-21T12:26:53;3.72;;;2.40;;
25057;SDS011;13057;50.978;11.034;2022-08-21T12:29:26;5.55;;;2.78;;
25057;SDS011;13057;50.978;11.034;2022-08-21T12:32:00;5.10;;;2.45;;
25057;SDS011;13057;50.978;11.034;2022-08-21T12:34:45;4.88;;;2.75;;
25057;SDS011;13057;50.978;11.034;2022-08-21T12:37:27;4.55;;;2.53;;
25057;SDS011;13057;50.978;11.034;2022-08-21T12:40:10;5.38;;;2.50;;
25057;SDS011;13057;50.978;11.034;2022-08-21T12:42:45;4.55;;;2.30;;
25057;SDS011;13057;50.978;11.034;2022-08-21T12:45:20;8.57;;;2.72;;
25057;SDS011;13057;50.978;11.034;2022-08-21T12:47:56;3.25;;;2.40;;
25057;SDS011;13057;50.978;11.034;2022-08-21T12:50:36;4.40;;;2.55;;
25057;SDS011;13057;50.978;11.034;2022-08-21T12:53:08;4.82;;;2.58;;
25057;SDS011;13057;50.978;11.034;2022-08-21T12:55:55;5.25;;;2.30;;
25057;SDS011;13057;50.978;11.034;2022-08-21T12:58:26;2.57;;;2.07;;
25057;SDS011;13057;50.978;11.034;2022-08-21T13:00:56;3.90;;;2.50;;
25057;SDS011;13057;50.978;11.034;2022-08-21T13:03:27;3.25;;;2.15;;
25057;SDS011;13057;50.978;11.034;2022-08-21T13:05:54;6.65;;;2.33;;
25057;SDS011;13057;50.978;11.034;2022-08-21T13:08:21;4.63;;;2.83;;
25057;SDS011;13057;50.978;11.034;2022-08-21T13:10:56;4.30;;;2.38;;
25057;SDS011;13057;50.978;11.034;2022-08-21T13:13:27;7.05;;;2.28;;
25057;SDS011;13057;50.978;11.034;2022-08-21T13:15:58;4.00;;;2.20;;
25057;SDS011;13057;50.978;11.034;2022-08-21T13:18:28;5.20;;;2.20;;
25057;SDS011;13057;50.978;11.034;2022-08-21T13:21:03;6.63;;;2.53;;
25057;SDS011;13057;50.978;11.034;2022-08-21T13:23:32;5.20;;;2.50;;
25057;SDS011;13057;50.978;11.034;2022-08-21T13:25:58;4.68;;;2.15;;
25057;SDS011;13057;50.978;11.034;2022-08-21T13:28:24;3.28;;;2.33;;
25057;SDS011;13057;50.978;11.034;2022-08-21T13:30:59;4.30;;;2.95;;
25057;SDS011;13057;50.978;11.034;2022-08-21T13:33:27;5.35;;;2.03;;
25057;SDS011;13057;50.978;11.034;2022-08-21T13:36:01;3.85;;;1.80;;
25057;SDS011;13057;50.978;11.034;2022-08-21T13:38:33;6.75;;;1.85;;
25057;SDS011;13057;50.978;11.034;2022-08-21T13:41:04;2.72;;;1.80;;
25057;SDS011;13057;50.978;11.034;2022-08-21T13:43:37;3.95;;;2.03;;
25057;SDS011;13057;50.978;11.034;2022-08-21T13:46:10;4.75;;;2.00;;
25057;SDS011;13057;50.978;11.034;2022-08-21T13:48:41;13.15;;;2.53;;
25057;SDS011;13057;50.978;11.034;2022-08-21T13:51:07;4.07;;;1.92;;
25057;SDS011;13057;50.978;11.034;2022-08-21T13:53:35;4.55;;;1.92;;
25057;SDS011;13057;50.978;11.034;2022-08-21T13:56:21;3.78;;;1.92;;
25057;SDS011;13057;50.978;11.034;2022-08-21T13:58:50;4.72;;;2.13;;
25057;SDS011;13057;50.978;11.034;2022-08-21T14:01:23;4.13;;;1.98;;
25057;SDS011;13057;50.978;11.034;2022-08-21T14:03:58;10.15;;;6.70;;
25057;SDS011;13057;50.978;11.034;2022-08-21T14:06:34;3.42;;;2.00;;
25057;SDS011;13057;50.978;11.034;2022-08-21T14:09:10;3.92;;;1.92;;
25057;SDS011;13057;50.978;11.034;2022-08-21T14:11:37;4.25;;;1.80;;
25057;SDS011;13057;50.978;11.034;2022-08-21T14:14:19;2.80;;;1.75;;
25057;SDS011;13057;50.978;11.034;2022-08-21T14:16:54;3.47;;;2.00;;
25057;SDS011;13057;50.978;11.034;2022-08-21T14:19:26;3.65;;;1.70;;
25057;SDS011;13057;50.978;11.034;2022-08-21T14:25:05;3.58;;;1.88;;
25057;SDS011;13057;50.978;11.034;2022-08-21T14:27:43;2.38;;;1.90;;
25057;SDS011;13057;50.978;11.034;2022-08-21T14:30:26;6.25;;;2.00;;
25057;SDS011;13057;50.978;11.034;2022-08-21T14:32:56;7.10;;;2.35;;
25057;SDS011;13057;50.978;11.034;2022-08-21T14:35:25;3.20;;;2.08;;
25057;SDS011;13057;50.978;11.034;2022-08-21T14:37:52;3.70;;;2.05;;
25057;SDS011;13057;50.978;11.034;2022-08-21T14:40:20;3.33;;;1.88;;
25057;SDS011;13057;50.978;11.034;2022-08-21T14:42:50;4.03;;;2.30;;
25057;SDS011;13057;50.978;11.034;2022-08-21T14:45:17;3.65;;;2.13;;
25057;SDS011;13057;50.978;11.034;2022-08-21T14:50:14;4.57;;;1.77;;
25057;SDS011;13057;50.978;11.034;2022-08-21T14:52:40;4.63;;;1.92;;
25057;SDS011;13057;50.978;11.034;2022-08-21T14:55:08;4.75;;;2.35;;
25057;SDS011;13057;50.978;11.034;2022-08-21T14:57:38;5.22;;;1.90;;
25057;SDS011;13057;50.978;11.034;2022-08-21T15:00:08;3.72;;;2.13;;
25057;SDS011;13057;50.978;11.034;2022-08-21T15:02:36;2.75;;;1.80;;
25057;SDS011;13057;50.978;11.034;2022-08-21T15:05:02;6.57;;;1.73;;
25057;SDS011;13057;50.978;11.034;2022-08-21T15:07:28;2.63;;;1.70;;
25057;SDS011;13057;50.978;11.034;2022-08-21T15:09:54;2.70;;;2.00;;
25057;SDS011;13057;50.978;11.034;2022-08-21T15:12:20;8.55;;;4.07;;
25057;SDS011;13057;50.978;11.034;2022-08-21T15:14:46;3.38;;;2.00;;
25057;SDS011;13057;50.978;11.034;2022-08-21T15:17:11;3.42;;;2.22;;
25057;SDS011;13057;50.978;11.034;2022-08-21T15:19:37;5.15;;;2.13;;